sensor_id;sensor_type;location;lat;lon;timestamp;P1;durP1;ratioP1;P2;durP2;ratioP2
22468;SDS011;11401;50.792;4.352;2023-06-14T01:33:31;6.40;;;5.18;;
22468;SDS011;11401;50.792;4.352;2023-06-14T01:36:00;6.40;;;5.68;;
22468;SDS011;11401;50.792;4.352;2023-06-14T01:38:29;8.77;;;5.50;;
22468;SDS011;11401;50.792;4.352;2023-06-14T01:40:57;11.88;;;6.30;;
22468;SDS011;11401;50.792;4.352;2023-06-14T01:43:26;5.53;;;4.93;;
22468;SDS011;11401;50.792;4.352;2023-06-14T01:45:55;8.38;;;5.97;;
22468;SDS011;11401;50.792;4.352;2023-06-14T01:48:23;6.60;;;5.25;;
22468;SDS011;11401;50.792;4.352;2023-06-14T01:50:50;7.95;;;5.75;;
22468;SDS011;11401;50.792;4.352;2023-06-14T01:53:19;8.48;;;5.70;;
22468;SDS011;11401;50.792;4.352;2023-06-14T01:55:47;7.53;;;6.00;;
22468;SDS011;11401;50.792;4.352;2023-06-14T01:58:15;6.93;;;5.53;;
22468;SDS011;11401;50.792;4.352;2023-06-14T02:00:44;6.68;;;5.78;;
22468;SDS011;11401;50.792;4.352;2023-06-14T02:03:11;6.38;;;5.70;;
22468;SDS011;11401;50.792;4.352;2023-06-14T02:05:39;6.65;;;5.95;;
22468;SDS011;11401;50.792;4.352;2023-06-14T02:08:06;8.07;;;5.35;;
22468;SDS011;11401;50.792;4.352;2023-06-14T02:10:33;7.00;;;6.03;;
22468;SDS011;11401;50.792;4.352;2023-06-14T02:13:02;7.45;;;5.40;;
22468;SDS011;11401;50.792;4.352;2023-06-14T02:15:29;6.65;;;5.88;;
22468;SDS011;11401;50.792;4.352;2023-06-14T02:18:01;16.35;;;7.40;;
22468;SDS011;11401;50.792;4.352;2023-06-14T02:20:32;7.75;;;5.80;;
22468;SDS011;11401;50.792;4.352;2023-06-14T02:23:00;8.93;;;5.90;;
22468;SDS011;11401;50.792;4.352;2023-06-14T02:25:30;8.32;;;5.50;;
22468;SDS011;11401;50.792;4.352;2023-06-14T02:27:57;7.15;;;5.72;;
22468;SDS011;11401;50.792;4.352;2023-06-14T02:30:24;9.52;;;5.60;;
22468;SDS011;11401;50.792;4.352;2023-06-14T02:32:55;7.68;;;5.45;;
22468;SDS011;11401;50.792;4.352;2023-06-14T02:35:23;11.20;;;5.80;;
22468;SDS011;11401;50.792;4.352;2023-06-14T02:37:54;7.70;;;5.85;;
22468;SDS011;11401;50.792;4.352;2023-06-14T02:40:22;7.40;;;6.20;;
22468;SDS011;11401;50.792;4.352;2023-06-14T02:42:50;7.32;;;5.63;;
22468;SDS011;11401;50.792;4.352;2023-06-14T02:45:17;9.07;;;6.40;;
22468;SDS011;11401;50.792;4.352;2023-06-14T02:47:44;9.05;;;6.03;;
22468;SDS011;11401;50.792;4.352;2023-06-14T02:50:12;8.82;;;6.47;;
22468;SDS011;11401;50.792;4.352;2023-06-14T02:52:40;12.15;;;5.65;;
22468;SDS011;11401;50.792;4.352;2023-06-14T02:55:11;8.90;;;6.22;;
22468;SDS011;11401;50.792;4.352;2023-06-14T02:57:38;7.10;;;5.97;;
22468;SDS011;11401;50.792;4.352;2023-06-14T03:00:07;6.10;;;5.50;;
22468;SDS011;11401;50.792;4.352;2023-06-14T03:02:42;12.57;;;6.40;;
22468;SDS011;11401;50.792;4.352;2023-06-14T03:05:10;9.57;;;6.20;;
22468;SDS011;11401;50.792;4.352;2023-06-14T03:07:37;6.93;;;6.30;;
22468;SDS011;11401;50.792;4.352;2023-06-14T03:10:08;8.85;;;6.00;;
22468;SDS011;11401;50.792;4.352;2023-06-14T03:12:39;8.80;;;6.07;;
22468;SDS011;11401;50.792;4.352;2023-06-14T03:15:07;7.18;;;6.38;;
22468;SDS011;11401;50.792;4.352;2023-06-14T03:17:38;8.15;;;6.70;;
22468;SDS011;11401;50.792;4.352;2023-06-14T03:20:07;7.43;;;6.28;;
22468;SDS011;11401;50.792;4.352;2023-06-14T03:22:35;15.65;;;6.88;;
22468;SDS011;11401;50.792;4.352;2023-06-14T03:25:02;7.97;;;6.25;;
22468;SDS011;11401;50.792;4.352;2023-06-14T03:27:35;11.13;;;6.13;;
22468;SDS011;11401;50.792;4.352;2023-06-14T03:30:03;9.98;;;6.20;;
22468;SDS011;11401;50.792;4.352;2023-06-14T03:32:31;8.57;;;5.75;;
22468;SDS011;11401;50.792;4.352;2023-06-14T03:35:00;8.15;;;5.90;;
22468;SDS011;11401;50.792;4.352;2023-06-14T03:37:28;11.15;;;7.57;;
22468;SDS011;11401;50.792;4.352;2023-06-14T03:39:55;9.07;;;6.20;;
22468;SDS011;11401;50.792;4.352;2023-06-14T03:42:24;10.07;;;5.95;;
22468;SDS011;11401;50.792;4.352;2023-06-14T03:44:52;10.15;;;6.57;;
22468;SDS011;11401;50.792;4.352;2023-06-14T03:47:21;7.13;;;5.88;;
22468;SDS011;11401;50.792;4.352;2023-06-14T03:49:48;10.30;;;6.15;;
22468;SDS011;11401;50.792;4.352;2023-06-14T03:52:15;7.10;;;6.40;;
22468;SDS011;11401;50.792;4.352;2023-06-14T03:54:45;8.90;;;6.53;;
22468;SDS011;11401;50.792;4.352;2023-06-14T03:57:17;10.18;;;6.43;;
22468;SDS011;11401;50.792;4.352;2023-06-14T03:59:48;8.05;;;6.53;;
22468;SDS011;11401;50.792;4.352;2023-06-14T04:02:15;7.93;;;6.70;;
22468;SDS011;11401;50.792;4.352;2023-06-14T04:04:43;8.70;;;6.43;;
22468;SDS011;11401;50.792;4.352;2023-06-14T04:07:12;12.98;;;6.43;;
22468;SDS011;11401;50.792;4.352;2023-06-14T04:09:39;10.52;;;6.32;;
22468;SDS011;11401;50.792;4.352;2023-06-14T04:12:07;9.32;;;6.15;;
22468;SDS011;11401;50.792;4.352;2023-06-14T04:14:39;13.23;;;6.32;;
22468;SDS011;11401;50.792;4.352;2023-06-14T04:17:08;14.88;;;6.40;;
22468;SDS011;11401;50.792;4.352;2023-06-14T04:19:37;10.85;;;6.45;;
22468;SDS011;11401;50.792;4.352;2023-06-14T04:22:04;13.40;;;6.43;;
22468;SDS011;11401;50.792;4.352;2023-06-14T04:24:35;9.93;;;6.47;;
22468;SDS011;11401;50.792;4.352;2023-06-14T04:27:02;9.95;;;6.25;;
22468;SDS011;11401;50.792;4.352;2023-06-14T04:29:30;10.88;;;6.50;;
22468;SDS011;11401;50.792;4.352;2023-06-14T04:32:04;14.20;;;5.82;;
22468;SDS011;11401;50.792;4.352;2023-06-14T04:34:32;9.13;;;7.15;;
22468;SDS011;11401;50.792;4.352;2023-06-14T04:37:02;7.32;;;6.30;;
22468;SDS011;11401;50.792;4.352;2023-06-14T04:39:35;11.20;;;7.15;;
22468;SDS011;11401;50.792;4.352;2023-06-14T04:42:02;9.32;;;6.45;;
22468;SDS011;11401;50.792;4.352;2023-06-14T04:44:32;15.00;;;6.30;;
22468;SDS011;11401;50.792;4.352;2023-06-14T04:47:02;17.65;;;7.50;;
22468;SDS011;11401;50.792;4.352;2023-06-14T04:49:29;24.17;;;8.70;;
22468;SDS011;11401;50.792;4.352;2023-06-14T04:51:59;10.63;;;6.43;;
22468;SDS011;11401;50.792;4.352;2023-06-14T04:54:34;11.40;;;6.80;;
22468;SDS011;11401;50.792;4.352;2023-06-14T04:57:07;11.13;;;6.65;;
22468;SDS011;11401;50.792;4.352;2023-06-14T04:59:35;7.10;;;6.30;;
22468;SDS011;11401;50.792;4.352;2023-06-14T05:02:02;12.60;;;6.75;;
22468;SDS011;11401;50.792;4.352;2023-06-14T05:04:30;7.72;;;5.88;;
22468;SDS011;11401;50.792;4.352;2023-06-14T05:06:58;11.70;;;6.50;;
22468;SDS011;11401;50.792;4.352;2023-06-14T05:09:25;8.30;;;6.35;;
22468;SDS011;11401;50.792;4.352;2023-06-14T05:11:52;10.90;;;6.75;;
22468;SDS011;11401;50.792;4.352;2023-06-14T05:14:20;10.23;;;6.80;;
22468;SDS011;11401;50.792;4.352;2023-06-14T05:16:50;10.65;;;6.90;;
22468;SDS011;11401;50.792;4.352;2023-06-14T05:19:17;10.93;;;6.97;;
22468;SDS011;11401;50.792;4.352;2023-06-14T05:21:44;8.10;;;6.90;;
22468;SDS011;11401;50.792;4.352;2023-06-14T05:24:12;11.60;;;6.47;;
22468;SDS011;11401;50.792;4.352;2023-06-14T05:26:40;10.63;;;7.28;;
22468;SDS011;11401;50.792;4.352;2023-06-14T05:29:07;9.25;;;6.90;;
22468;SDS011;11401;50.792;4.352;2023-06-14T05:31:34;8.23;;;6.60;;
22468;SDS011;11401;50.792;4.352;2023-06-14T05:34:01;12.20;;;6.97;;
22468;SDS011;11401;50.792;4.352;2023-06-14T05:36:29;17.33;;;6.35;;
22468;SDS011;11401;50.792;4.352;2023-06-14T05:38:56;10.15;;;6.40;;
22468;SDS011;11401;50.792;4.352;2023-06-14T05:41:26;15.48;;;6.85;;
22468;SDS011;11401;50.792;4.352;2023-06-14T05:43:54;7.85;;;6.20;;
22468;SDS011;11401;50.792;4.352;2023-06-14T05:46:22;10.57;;;6.93;;
22468;SDS011;11401;50.792;4.352;2023-06-14T05:48:52;16.33;;;6.78;;
22468;SDS011;11401;50.792;4.352;2023-06-14T05:51:19;15.18;;;7.65;;
22468;SDS011;11401;50.792;4.352;2023-06-14T05:53:49;8.30;;;6.47;;
22468;SDS011;11401;50.792;4.352;2023-06-14T05:56:17;7.70;;;6.60;;
22468;SDS011;11401;50.792;4.352;2023-06-14T05:58:45;10.20;;;6.20;;
22468;SDS011;11401;50.792;4.352;2023-06-14T06:01:12;7.57;;;5.90;;
22468;SDS011;11401;50.792;4.352;2023-06-14T06:03:40;8.02;;;6.30;;
22468;SDS011;11401;50.792;4.352;2023-06-14T06:06:08;9.85;;;7.13;;
22468;SDS011;11401;50.792;4.352;2023-06-14T06:08:35;14.95;;;6.72;;
22468;SDS011;11401;50.792;4.352;2023-06-14T06:11:02;9.98;;;6.53;;
22468;SDS011;11401;50.792;4.352;2023-06-14T06:13:29;12.27;;;5.88;;
22468;SDS011;11401;50.792;4.352;2023-06-14T06:15:56;11.07;;;6.00;;
22468;SDS011;11401;50.792;4.352;2023-06-14T06:18:23;9.40;;;6.53;;
22468;SDS011;11401;50.792;4.352;2023-06-14T06:20:50;7.72;;;5.57;;
22468;SDS011;11401;50.792;4.352;2023-06-14T06:23:17;11.95;;;6.07;;
22468;SDS011;11401;50.792;4.352;2023-06-14T06:25:44;6.47;;;5.88;;
22468;SDS011;11401;50.792;4.352;2023-06-14T06:28:11;7.50;;;6.15;;
22468;SDS011;11401;50.792;4.352;2023-06-14T06:30:38;6.82;;;6.03;;
22468;SDS011;11401;50.792;4.352;2023-06-14T06:33:05;7.18;;;6.45;;
22468;SDS011;11401;50.792;4.352;2023-06-14T06:35:33;9.07;;;5.60;;
22468;SDS011;11401;50.792;4.352;2023-06-14T06:38:00;8.25;;;5.78;;
22468;SDS011;11401;50.792;4.352;2023-06-14T06:40:27;13.85;;;6.10;;
22468;SDS011;11401;50.792;4.352;2023-06-14T06:42:54;7.18;;;5.50;;
22468;SDS011;11401;50.792;4.352;2023-06-14T06:45:25;11.18;;;6.28;;
22468;SDS011;11401;50.792;4.352;2023-06-14T06:47:52;6.78;;;5.97;;
22468;SDS011;11401;50.792;4.352;2023-06-14T06:50:19;10.00;;;5.80;;
22468;SDS011;11401;50.792;4.352;2023-06-14T06:52:49;11.00;;;6.03;;
22468;SDS011;11401;50.792;4.352;2023-06-14T06:55:17;8.07;;;5.63;;
22468;SDS011;11401;50.792;4.352;2023-06-14T06:57:45;9.52;;;6.32;;
22468;SDS011;11401;50.792;4.352;2023-06-14T07:00:12;7.70;;;6.05;;
22468;SDS011;11401;50.792;4.352;2023-06-14T07:02:40;7.90;;;5.15;;
22468;SDS011;11401;50.792;4.352;2023-06-14T07:05:07;7.50;;;6.00;;
22468;SDS011;11401;50.792;4.352;2023-06-14T07:07:34;9.45;;;6.00;;
22468;SDS011;11401;50.792;4.352;2023-06-14T07:10:02;9.90;;;6.05;;
22468;SDS011;11401;50.792;4.352;2023-06-14T07:12:31;6.80;;;5.25;;
22468;SDS011;11401;50.792;4.352;2023-06-14T07:15:00;7.47;;;5.20;;
22468;SDS011;11401;50.792;4.352;2023-06-14T07:17:29;6.32;;;5.43;;
22468;SDS011;11401;50.792;4.352;2023-06-14T07:19:56;9.02;;;5.40;;
22468;SDS011;11401;50.792;4.352;2023-06-14T07:22:23;8.30;;;5.60;;
22468;SDS011;11401;50.792;4.352;2023-06-14T07:24:50;7.10;;;5.30;;
22468;SDS011;11401;50.792;4.352;2023-06-14T07:27:18;5.63;;;5.05;;
22468;SDS011;11401;50.792;4.352;2023-06-14T07:29:45;6.32;;;4.97;;
22468;SDS011;11401;50.792;4.352;2023-06-14T07:32:12;6.68;;;4.93;;
22468;SDS011;11401;50.792;4.352;2023-06-14T07:34:39;7.72;;;5.75;;
22468;SDS011;11401;50.792;4.352;2023-06-14T07:37:06;7.38;;;5.00;;
22468;SDS011;11401;50.792;4.352;2023-06-14T07:39:33;7.05;;;5.03;;
22468;SDS011;11401;50.792;4.352;2023-06-14T07:42:01;5.30;;;4.80;;
22468;SDS011;11401;50.792;4.352;2023-06-14T07:44:29;4.85;;;4.13;;
22468;SDS011;11401;50.792;4.352;2023-06-14T07:46:57;4.80;;;4.38;;
22468;SDS011;11401;50.792;4.352;2023-06-14T07:49:27;6.00;;;4.82;;
22468;SDS011;11401;50.792;4.352;2023-06-14T07:51:54;5.30;;;4.80;;
22468;SDS011;11401;50.792;4.352;2023-06-14T07:54:21;7.28;;;5.22;;
22468;SDS011;11401;50.792;4.352;2023-06-14T07:56:52;6.00;;;5.03;;
22468;SDS011;11401;50.792;4.352;2023-06-14T07:59:19;8.63;;;5.28;;
22468;SDS011;11401;50.792;4.352;2023-06-14T08:01:47;5.75;;;4.85;;
22468;SDS011;11401;50.792;4.352;2023-06-14T08:04:15;5.57;;;4.70;;
22468;SDS011;11401;50.792;4.352;2023-06-14T08:06:42;4.68;;;4.18;;
22468;SDS011;11401;50.792;4.352;2023-06-14T08:09:12;5.28;;;4.68;;
22468;SDS011;11401;50.792;4.352;2023-06-14T08:11:39;4.88;;;4.47;;
22468;SDS011;11401;50.792;4.352;2023-06-14T08:14:06;8.38;;;4.70;;
22468;SDS011;11401;50.792;4.352;2023-06-14T08:16:34;4.80;;;4.40;;
22468;SDS011;11401;50.792;4.352;2023-06-14T08:19:01;12.13;;;5.15;;
22468;SDS011;11401;50.792;4.352;2023-06-14T08:21:28;4.78;;;4.22;;
22468;SDS011;11401;50.792;4.352;2023-06-14T08:23:57;6.28;;;5.18;;
22468;SDS011;11401;50.792;4.352;2023-06-14T08:26:24;5.22;;;4.50;;
22468;SDS011;11401;50.792;4.352;2023-06-14T08:28:55;4.82;;;4.32;;
22468;SDS011;11401;50.792;4.352;2023-06-14T08:31:23;5.22;;;4.38;;
22468;SDS011;11401;50.792;4.352;2023-06-14T08:33:51;4.50;;;4.20;;
22468;SDS011;11401;50.792;4.352;2023-06-14T08:36:18;8.52;;;3.90;;
22468;SDS011;11401;50.792;4.352;2023-06-14T08:38:45;4.70;;;4.28;;
22468;SDS011;11401;50.792;4.352;2023-06-14T08:41:12;6.00;;;4.88;;
22468;SDS011;11401;50.792;4.352;2023-06-14T08:43:47;4.45;;;3.95;;
22468;SDS011;11401;50.792;4.352;2023-06-14T08:46:15;10.40;;;5.47;;
22468;SDS011;11401;50.792;4.352;2023-06-14T08:48:46;5.70;;;4.43;;
22468;SDS011;11401;50.792;4.352;2023-06-14T08:51:19;5.03;;;4.53;;
22468;SDS011;11401;50.792;4.352;2023-06-14T08:53:50;4.88;;;4.43;;
22468;SDS011;11401;50.792;4.352;2023-06-14T08:56:25;5.15;;;4.65;;
22468;SDS011;11401;50.792;4.352;2023-06-14T08:58:54;6.13;;;4.50;;
22468;SDS011;11401;50.792;4.352;2023-06-14T09:01:23;9.82;;;4.82;;
22468;SDS011;11401;50.792;4.352;2023-06-14T09:03:50;5.60;;;4.70;;
22468;SDS011;11401;50.792;4.352;2023-06-14T09:06:18;7.88;;;4.75;;
22468;SDS011;11401;50.792;4.352;2023-06-14T09:08:49;5.85;;;4.82;;
22468;SDS011;11401;50.792;4.352;2023-06-14T09:11:17;4.20;;;3.90;;
22468;SDS011;11401;50.792;4.352;2023-06-14T09:13:46;9.82;;;4.53;;
22468;SDS011;11401;50.792;4.352;2023-06-14T09:16:13;4.90;;;4.30;;
22468;SDS011;11401;50.792;4.352;2023-06-14T09:18:42;6.05;;;4.82;;
22468;SDS011;11401;50.792;4.352;2023-06-14T09:21:14;5.03;;;4.30;;
22468;SDS011;11401;50.792;4.352;2023-06-14T09:23:46;6.97;;;5.38;;
22468;SDS011;11401;50.792;4.352;2023-06-14T09:26:15;5.40;;;4.90;;
22468;SDS011;11401;50.792;4.352;2023-06-14T09:28:47;4.30;;;4.00;;
22468;SDS011;11401;50.792;4.352;2023-06-14T09:31:17;5.47;;;4.97;;
22468;SDS011;11401;50.792;4.352;2023-06-14T09:33:46;4.18;;;3.78;;
22468;SDS011;11401;50.792;4.352;2023-06-14T09:36:18;5.05;;;4.45;;
22468;SDS011;11401;50.792;4.352;2023-06-14T09:38:52;5.25;;;4.45;;
22468;SDS011;11401;50.792;4.352;2023-06-14T09:41:36;4.15;;;3.65;;
22468;SDS011;11401;50.792;4.352;2023-06-14T09:44:06;4.68;;;4.25;;
22468;SDS011;11401;50.792;4.352;2023-06-14T09:46:41;9.55;;;4.68;;
22468;SDS011;11401;50.792;4.352;2023-06-14T09:49:08;4.70;;;3.85;;
22468;SDS011;11401;50.792;4.352;2023-06-14T09:51:36;5.10;;;3.95;;
22468;SDS011;11401;50.792;4.352;2023-06-14T09:54:12;4.72;;;4.32;;
22468;SDS011;11401;50.792;4.352;2023-06-14T09:56:46;4.90;;;4.50;;
22468;SDS011;11401;50.792;4.352;2023-06-14T09:59:14;7.60;;;4.00;;
22468;SDS011;11401;50.792;4.352;2023-06-14T10:01:47;6.97;;;4.68;;
22468;SDS011;11401;50.792;4.352;2023-06-14T10:04:14;5.25;;;4.68;;
22468;SDS011;11401;50.792;4.352;2023-06-14T10:06:45;4.25;;;3.85;;
22468;SDS011;11401;50.792;4.352;2023-06-14T10:09:13;4.72;;;4.07;;
22468;SDS011;11401;50.792;4.352;2023-06-14T10:11:40;5.32;;;4.10;;
22468;SDS011;11401;50.792;4.352;2023-06-14T10:14:11;4.15;;;3.85;;
22468;SDS011;11401;50.792;4.352;2023-06-14T10:16:48;4.05;;;3.72;;
22468;SDS011;11401;50.792;4.352;2023-06-14T10:19:27;7.32;;;4.47;;
22468;SDS011;11401;50.792;4.352;2023-06-14T10:22:06;4.15;;;3.75;;
22468;SDS011;11401;50.792;4.352;2023-06-14T10:24:46;3.92;;;3.63;;
22468;SDS011;11401;50.792;4.352;2023-06-14T10:27:14;4.70;;;4.30;;
22468;SDS011;11401;50.792;4.352;2023-06-14T10:32:21;4.55;;;4.10;;
22468;SDS011;11401;50.792;4.352;2023-06-14T10:34:54;4.80;;;4.40;;
22468;SDS011;11401;50.792;4.352;2023-06-14T10:37:23;4.25;;;3.60;;
22468;SDS011;11401;50.792;4.352;2023-06-14T10:39:53;3.70;;;3.40;;
22468;SDS011;11401;50.792;4.352;2023-06-14T10:42:20;6.85;;;4.30;;
22468;SDS011;11401;50.792;4.352;2023-06-14T10:44:55;6.95;;;4.20;;
22468;SDS011;11401;50.792;4.352;2023-06-14T10:47:26;3.88;;;3.58;;
22468;SDS011;11401;50.792;4.352;2023-06-14T10:50:04;7.40;;;4.47;;
22468;SDS011;11401;50.792;4.352;2023-06-14T10:52:41;4.95;;;4.10;;
22468;SDS011;11401;50.792;4.352;2023-06-14T10:55:22;7.25;;;3.85;;
22468;SDS011;11401;50.792;4.352;2023-06-14T10:57:50;4.40;;;4.00;;
22468;SDS011;11401;50.792;4.352;2023-06-14T11:00:21;5.82;;;4.57;;
22468;SDS011;11401;50.792;4.352;2023-06-14T11:05:50;5.68;;;4.43;;
22468;SDS011;11401;50.792;4.352;2023-06-14T11:10:49;3.90;;;3.60;;
22468;SDS011;11401;50.792;4.352;2023-06-14T11:13:17;3.75;;;3.47;;
22468;SDS011;11401;50.792;4.352;2023-06-14T11:15:45;6.65;;;4.15;;
22468;SDS011;11401;50.792;4.352;2023-06-14T11:18:14;4.53;;;4.13;;
22468;SDS011;11401;50.792;4.352;2023-06-14T11:20:45;8.70;;;3.75;;
22468;SDS011;11401;50.792;4.352;2023-06-14T11:23:13;4.75;;;3.72;;
22468;SDS011;11401;50.792;4.352;2023-06-14T11:25:40;6.15;;;4.35;;
22468;SDS011;11401;50.792;4.352;2023-06-14T11:28:07;4.32;;;3.92;;
22468;SDS011;11401;50.792;4.352;2023-06-14T11:30:34;5.28;;;4.78;;
22468;SDS011;11401;50.792;4.352;2023-06-14T11:33:02;4.68;;;3.55;;
22468;SDS011;11401;50.792;4.352;2023-06-14T11:35:29;4.32;;;3.85;;
22468;SDS011;11401;50.792;4.352;2023-06-14T11:37:56;5.97;;;4.32;;
22468;SDS011;11401;50.792;4.352;2023-06-14T11:40:24;4.90;;;4.32;;
22468;SDS011;11401;50.792;4.352;2023-06-14T11:43:01;4.30;;;3.90;;
22468;SDS011;11401;50.792;4.352;2023-06-14T11:45:29;5.38;;;4.00;;
22468;SDS011;11401;50.792;4.352;2023-06-14T11:47:58;4.00;;;3.70;;
22468;SDS011;11401;50.792;4.352;2023-06-14T11:50:26;11.40;;;4.28;;
22468;SDS011;11401;50.792;4.352;2023-06-14T11:52:58;5.47;;;4.70;;
22468;SDS011;11401;50.792;4.352;2023-06-14T11:55:36;6.35;;;4.25;;
